Time;durP1;ratioP1;P1;durP2;ratioP2;P2;SDS_P1;SDS_P2;PMS_P1;PMS_P2;Temp;Humidity;BMP_temperature;BMP_pressure;BME280_temperature;BME280_humidity;BME280_pressure;Samples;Min_cycle;Max_cycle;Signal;HPM_P1;HPM_P2
2021/03/04 00:02:14;;;;;;;15.30;8.70;;;7.40;99.90;;;;;;5053182;28;20495;-92
2021/03/04 00:04:40;;;;;;;30.55;9.95;;;7.40;99.90;;;;;;5053439;28;20370;-93
2021/03/04 00:07:05;;;;;;;18.42;9.30;;;7.50;99.90;;;;;;5057031;28;20025;-92
2021/03/04 00:09:31;;;;;;;18.55;9.45;;;7.40;99.90;;;;;;5057251;28;20063;-93
2021/03/04 00:11:57;;;;;;;20.08;9.98;;;7.30;99.90;;;;;;5057056;28;20045;-93
2021/03/04 00:14:23;;;;;;;19.98;10.25;;;7.10;99.90;;;;;;5058246;28;20033;-91
2021/03/04 00:16:49;;;;;;;17.52;8.55;;;7.30;99.90;;;;;;5073677;28;20082;-92
2021/03/04 00:19:15;;;;;;;16.50;9.85;;;7.00;99.90;;;;;;5057328;28;20462;-93
2021/03/04 00:21:40;;;;;;;17.10;9.32;;;7.00;99.90;;;;;;5056960;28;20043;-93
2021/03/04 00:24:07;;;;;;;16.10;8.95;;;7.00;99.90;;;;;;5056946;28;20021;-92
2021/03/04 00:26:33;;;;;;;20.17;9.27;;;6.80;99.90;;;;;;5056730;28;20028;-92
2021/03/04 00:28:59;;;;;;;16.60;8.70;;;6.90;99.90;;;;;;5056884;28;20037;-92
2021/03/04 00:31:25;;;;;;;15.45;8.65;;;7.00;99.90;;;;;;5057609;28;20582;-93
2021/03/04 00:33:50;;;;;;;19.88;9.77;;;7.20;99.90;;;;;;5056827;28;20087;-93
2021/03/04 00:36:16;;;;;;;18.17;9.50;;;7.20;99.90;;;;;;5056508;28;20031;-93
2021/03/04 00:38:42;;;;;;;17.60;9.32;;;7.10;99.90;;;;;;5056939;28;20112;-92
2021/03/04 00:41:08;;;;;;;19.83;9.07;;;7.10;99.90;;;;;;5057835;28;20025;-93
2021/03/04 00:43:33;;;;;;;21.02;9.98;;;7.00;99.90;;;;;;5057792;28;20029;-93
2021/03/04 00:45:59;;;;;;;21.95;10.63;;;6.80;99.90;;;;;;5056659;28;20112;-93
2021/03/04 00:48:24;;;;;;;24.60;10.63;;;6.80;99.90;;;;;;5056577;28;20028;-93
2021/03/04 00:50:50;;;;;;;21.10;9.90;;;6.60;99.90;;;;;;5057935;28;20031;-94
2021/03/04 00:53:16;;;;;;;19.88;9.95;;;6.60;99.90;;;;;;5056376;28;20032;-93
2021/03/04 00:55:41;;;;;;;21.60;9.70;;;6.60;99.90;;;;;;5056207;28;20499;-94
2021/03/04 00:58:07;;;;;;;18.75;9.90;;;6.70;99.90;;;;;;5056414;28;20029;-94
2021/03/04 01:00:33;;;;;;;21.67;9.98;;;6.80;99.90;;;;;;5056345;28;20027;-93
2021/03/04 01:02:59;;;;;;;17.77;8.68;;;7.00;99.90;;;;;;5057736;28;20075;-94
2021/03/04 01:05:25;;;;;;;16.65;8.70;;;7.00;99.90;;;;;;5057948;28;20025;-92
2021/03/04 01:07:51;;;;;;;14.95;8.27;;;7.30;99.90;;;;;;5056169;28;20029;-93
2021/03/04 01:10:21;;;;;;;23.83;9.32;;;7.20;99.90;;;;;;5056053;28;21579;-93
2021/03/04 01:12:47;;;;;;;16.42;8.88;;;7.00;99.90;;;;;;5056034;28;20029;-93
2021/03/04 01:15:16;;;;;;;17.48;8.15;;;6.90;99.90;;;;;;5055993;28;20029;-94
2021/03/04 01:17:42;;;;;;;13.25;8.13;;;7.00;99.90;;;;;;5056095;28;20082;-91
2021/03/04 01:20:12;;;;;;;15.18;8.00;;;7.00;99.90;;;;;;5055855;28;20029;-93
2021/03/04 01:22:38;;;;;;;20.88;8.48;;;7.20;99.90;;;;;;5056375;28;20457;-93
2021/03/04 01:25:05;;;;;;;15.93;8.52;;;7.20;99.90;;;;;;5055737;28;20155;-92
2021/03/04 01:27:31;;;;;;;17.15;8.85;;;7.10;99.90;;;;;;5055756;28;20028;-91
2021/03/04 01:29:57;;;;;;;18.95;9.18;;;7.10;99.90;;;;;;5056832;28;20024;-91
2021/03/04 01:32:23;;;;;;;16.50;7.50;;;6.90;99.90;;;;;;5055511;28;20028;-91
2021/03/04 01:34:49;;;;;;;13.10;8.13;;;6.80;99.90;;;;;;5055658;28;20082;-92
2021/03/04 01:37:14;;;;;;;14.35;7.38;;;6.80;99.90;;;;;;5055392;28;20032;-95
2021/03/04 01:39:40;;;;;;;17.42;8.73;;;6.80;99.90;;;;;;5058676;28;20107;-94
2021/03/04 01:42:06;;;;;;;16.05;8.98;;;6.80;99.90;;;;;;5056784;28;20017;-94
2021/03/04 01:44:32;;;;;;;17.30;8.27;;;6.80;99.90;;;;;;5055413;28;20025;-93
2021/03/04 01:46:58;;;;;;;16.58;7.93;;;6.70;99.90;;;;;;5056507;28;20063;-95
2021/03/04 01:49:25;;;;;;;13.40;6.93;;;6.70;99.90;;;;;;5056039;28;20033;-95
2021/03/04 01:51:51;;;;;;;21.85;8.75;;;6.70;99.90;;;;;;5055956;28;20032;-91
2021/03/04 01:54:18;;;;;;;12.27;6.95;;;6.70;99.90;;;;;;5055414;28;20365;-92
2021/03/04 01:56:45;;;;;;;14.77;7.88;;;6.70;99.90;;;;;;5055053;28;20033;-91
2021/03/04 01:59:11;;;;;;;17.83;8.45;;;6.70;99.90;;;;;;5055357;28;20529;-91
2021/03/04 02:01:37;;;;;;;12.45;7.57;;;6.70;99.90;;;;;;5055111;28;20400;-91
2021/03/04 02:04:05;;;;;;;13.45;7.65;;;6.60;99.90;;;;;;5055113;28;20029;-94
2021/03/04 02:06:47;;;;;;;16.23;7.35;;;6.50;99.90;;;;;;5056423;28;20032;-94
2021/03/04 02:09:15;;;;;;;14.18;7.78;;;7.00;99.90;;;;;;5055243;28;20033;-93
2021/03/04 02:11:50;;;;;;;17.05;8.45;;;6.90;99.90;;;;;;5054800;28;20123;-94
2021/03/04 02:14:21;;;;;;;18.92;9.15;;;6.80;99.90;;;;;;5054982;28;20021;-93
2021/03/04 02:16:51;;;;;;;15.43;8.20;;;6.80;99.90;;;;;;5054834;28;20053;-94
2021/03/04 02:19:50;;;;;;;21.10;7.88;;;6.90;99.90;;;;;;5055479;28;20028;-94
2021/03/04 02:22:43;;;;;;;17.23;7.65;;;7.10;99.90;;;;;;5055978;28;20029;-95
2021/03/04 02:25:22;;;;;;;18.65;8.32;;;7.00;99.90;;;;;;5054778;28;20025;-94
2021/03/04 02:27:50;;;;;;;24.27;9.32;;;6.90;99.90;;;;;;5053935;28;20021;-94
2021/03/04 02:30:22;;;;;;;17.77;8.85;;;6.70;99.90;;;;;;5054696;28;20021;-94
2021/03/04 02:32:52;;;;;;;20.42;8.57;;;6.50;99.90;;;;;;5054818;28;20098;-94
2021/03/04 02:35:33;;;;;;;13.18;8.00;;;6.50;99.90;;;;;;5054444;28;20071;-94
2021/03/04 02:38:02;;;;;;;13.70;7.18;;;6.70;99.90;;;;;;5054651;28;20025;-94
2021/03/04 02:40:31;;;;;;;21.35;8.80;;;6.80;99.90;;;;;;5054492;28;20108;-94
2021/03/04 02:42:58;;;;;;;13.85;7.60;;;6.70;99.90;;;;;;5054494;28;20024;-94
2021/03/04 02:45:25;;;;;;;16.60;8.70;;;6.70;99.90;;;;;;5054349;28;20116;-94
2021/03/04 02:47:52;;;;;;;15.88;8.10;;;6.70;99.90;;;;;;5055753;28;20077;-94
2021/03/04 02:50:18;;;;;;;17.25;8.85;;;6.60;99.90;;;;;;5055528;28;20092;-94
2021/03/04 02:52:45;;;;;;;16.27;8.48;;;6.60;99.90;;;;;;5055432;28;20083;-94
2021/03/04 02:55:12;;;;;;;20.00;8.32;;;6.50;99.90;;;;;;5055236;28;20017;-94
2021/03/04 02:57:44;;;;;;;13.73;8.05;;;6.40;99.90;;;;;;5054247;28;20477;-94
2021/03/04 03:00:13;;;;;;;14.68;7.70;;;6.50;99.90;;;;;;5054097;28;20032;-94
2021/03/04 03:02:41;;;;;;;13.68;7.68;;;6.40;99.90;;;;;;5053924;28;20021;-93
2021/03/04 03:05:09;;;;;;;15.02;7.80;;;6.30;99.90;;;;;;5053963;28;20082;-94
2021/03/04 03:07:40;;;;;;;17.48;8.43;;;6.30;99.90;;;;;;5055018;28;20096;-95
2021/03/04 03:10:08;;;;;;;13.55;7.03;;;6.30;99.90;;;;;;5053572;28;20025;-93
2021/03/04 03:12:37;;;;;;;16.48;6.60;;;6.40;99.90;;;;;;5053810;28;20067;-93
2021/03/04 03:15:07;;;;;;;17.60;7.40;;;6.50;99.90;;;;;;5053841;28;20028;-94
2021/03/04 03:17:33;;;;;;;16.40;7.50;;;6.50;99.90;;;;;;5053729;28;20037;-95
2021/03/04 03:19:59;;;;;;;16.25;7.88;;;6.50;99.90;;;;;;5053745;28;20075;-94
2021/03/04 03:22:25;;;;;;;34.00;13.05;;;6.60;99.90;;;;;;5053755;28;20104;-93
2021/03/04 03:24:51;;;;;;;30.15;11.13;;;6.80;99.90;;;;;;5070195;28;20055;-93
2021/03/04 03:27:17;;;;;;;17.08;8.30;;;6.80;99.90;;;;;;5054657;28;20025;-92
2021/03/04 03:29:43;;;;;;;12.88;7.28;;;6.80;99.90;;;;;;5053544;28;20028;-93
2021/03/04 03:32:11;;;;;;;16.75;8.20;;;6.80;99.90;;;;;;5053393;28;20116;-93
2021/03/04 03:34:37;;;;;;;29.58;16.27;;;6.80;99.90;;;;;;5054670;28;20029;-93
2021/03/04 03:37:04;;;;;;;25.00;10.52;;;6.60;99.90;;;;;;5053240;28;20048;-93
2021/03/04 03:39:30;;;;;;;16.17;8.75;;;6.40;99.90;;;;;;5052779;28;20025;-93
2021/03/04 03:41:56;;;;;;;15.38;7.78;;;6.30;99.90;;;;;;5053669;28;20368;-93
2021/03/04 03:44:23;;;;;;;14.60;7.22;;;6.40;99.90;;;;;;5054425;28;20021;-93
2021/03/04 03:46:50;;;;;;;20.45;7.88;;;6.30;99.90;;;;;;5053253;28;20021;-94
2021/03/04 03:49:17;;;;;;;13.80;7.35;;;6.20;99.90;;;;;;5054320;28;20025;-93
2021/03/04 03:51:44;;;;;;;27.15;7.60;;;6.10;99.90;;;;;;5053447;28;20024;-93
2021/03/04 03:54:12;;;;;;;12.38;7.43;;;6.10;99.90;;;;;;5053253;28;20075;-93
2021/03/04 03:56:39;;;;;;;13.75;7.75;;;6.00;99.90;;;;;;5052890;28;20047;-93
2021/03/04 03:59:06;;;;;;;14.07;7.60;;;5.90;99.90;;;;;;5053233;28;20106;-95
2021/03/04 04:01:34;;;;;;;13.40;7.25;;;5.90;99.90;;;;;;5053042;28;20491;-93
2021/03/04 04:04:01;;;;;;;12.80;7.20;;;6.20;99.90;;;;;;5054177;28;20092;-93
2021/03/04 04:06:28;;;;;;;14.23;6.57;;;6.40;99.90;;;;;;5054316;28;20036;-94
2021/03/04 04:08:56;;;;;;;13.48;6.88;;;6.60;99.90;;;;;;5053001;28;20079;-93
2021/03/04 04:11:23;;;;;;;11.50;6.78;;;6.70;99.90;;;;;;5052975;28;20048;-94
2021/03/04 04:13:49;;;;;;;12.40;6.90;;;6.90;99.90;;;;;;5054351;28;20082;-93
2021/03/04 04:16:16;;;;;;;10.50;6.70;;;6.90;99.90;;;;;;5052961;28;20029;-94
2021/03/04 04:18:43;;;;;;;14.90;7.68;;;6.90;99.90;;;;;;5052935;28;20017;-94
2021/03/04 04:21:09;;;;;;;12.93;6.88;;;6.70;99.90;;;;;;5053033;28;20476;-93
2021/03/04 04:23:36;;;;;;;11.10;6.95;;;6.60;99.90;;;;;;5052908;28;20033;-92
2021/03/04 04:26:02;;;;;;;15.73;7.70;;;6.50;99.90;;;;;;5052860;28;20029;-93
2021/03/04 04:28:28;;;;;;;12.82;6.88;;;6.50;99.90;;;;;;5053084;28;20369;-93
2021/03/04 04:30:53;;;;;;;16.60;7.05;;;6.60;99.90;;;;;;5054228;28;20032;-93
2021/03/04 04:33:19;;;;;;;15.02;7.05;;;6.70;99.90;;;;;;5053316;28;20025;-93
2021/03/04 04:35:45;;;;;;;14.80;7.50;;;6.70;99.90;;;;;;5052942;28;20029;-93
2021/03/04 04:38:11;;;;;;;14.57;7.53;;;6.80;99.90;;;;;;5054146;28;20059;-94
2021/03/04 04:40:37;;;;;;;12.52;7.35;;;6.80;99.90;;;;;;5053230;28;20071;-94
2021/03/04 04:43:03;;;;;;;11.50;6.68;;;6.80;99.90;;;;;;5052831;28;20029;-93
2021/03/04 04:45:29;;;;;;;13.88;7.00;;;6.70;99.90;;;;;;5052773;28;20021;-94
2021/03/04 04:47:55;;;;;;;15.25;6.90;;;6.60;99.90;;;;;;5053899;28;20426;-94
2021/03/04 04:50:20;;;;;;;13.57;6.45;;;6.50;99.90;;;;;;5052791;28;20032;-93
2021/03/04 04:52:46;;;;;;;13.10;7.22;;;6.50;99.90;;;;;;5057051;28;20465;-94
2021/03/04 04:55:12;;;;;;;11.85;6.88;;;6.60;99.90;;;;;;5056615;28;20051;-92
2021/03/04 04:57:39;;;;;;;11.93;6.82;;;6.50;99.90;;;;;;5057429;28;20029;-93
2021/03/04 05:00:06;;;;;;;13.68;7.28;;;6.40;99.90;;;;;;5056379;28;20473;-92
2021/03/04 05:02:32;;;;;;;16.98;7.32;;;6.30;99.90;;;;;;5056629;28;20525;-93
2021/03/04 05:04:58;;;;;;;12.00;5.93;;;6.20;99.90;;;;;;5057436;28;20063;-93
2021/03/04 05:07:24;;;;;;;13.43;6.60;;;6.20;99.90;;;;;;5057488;28;20029;-93
2021/03/04 05:09:50;;;;;;;16.38;7.40;;;6.10;99.90;;;;;;5056003;28;20032;-93
2021/03/04 05:12:15;;;;;;;12.80;7.43;;;6.20;99.90;;;;;;5057087;28;20049;-93
2021/03/04 05:14:41;;;;;;;11.68;6.13;;;6.30;99.90;;;;;;5056087;28;20387;-93
2021/03/04 05:17:07;;;;;;;15.45;6.70;;;6.30;99.90;;;;;;5055946;28;20095;-93
2021/03/04 05:19:33;;;;;;;12.93;6.93;;;6.50;99.90;;;;;;5056084;28;20021;-92
2021/03/04 05:21:58;;;;;;;14.45;7.20;;;6.60;99.90;;;;;;5055991;28;20119;-91
2021/03/04 05:24:24;;;;;;;15.10;6.90;;;6.60;99.90;;;;;;5055910;28;20107;-93
2021/03/04 05:26:50;;;;;;;10.20;6.68;;;6.60;99.90;;;;;;5057096;28;20499;-92
2021/03/04 05:29:16;;;;;;;11.43;6.95;;;6.70;99.90;;;;;;5055719;28;20025;-92
2021/03/04 05:31:42;;;;;;;15.77;7.47;;;6.50;99.90;;;;;;5055614;28;20060;-93
2021/03/04 05:34:08;;;;;;;11.93;7.47;;;6.30;99.90;;;;;;5056838;28;20357;-93
2021/03/04 05:36:33;;;;;;;16.10;7.28;;;6.30;99.90;;;;;;5055627;28;20033;-93
2021/03/04 05:38:59;;;;;;;17.58;8.13;;;6.30;99.90;;;;;;5055644;28;20104;-93
2021/03/04 05:41:26;;;;;;;20.58;11.38;;;6.20;99.90;;;;;;5055654;28;20164;-92
2021/03/04 05:43:51;;;;;;;14.27;9.10;;;6.20;99.90;;;;;;5072420;28;20031;-94
2021/03/04 05:46:21;;;;;;;13.85;6.97;;;6.20;99.90;;;;;;5055708;28;20021;-94
2021/03/04 05:48:49;;;;;;;13.23;7.70;;;6.20;99.90;;;;;;5055579;28;20108;-95
2021/03/04 05:51:40;;;;;;;11.18;6.50;;;6.40;99.90;;;;;;5055463;28;20025;-95
2021/03/04 05:54:07;;;;;;;13.07;6.72;;;6.60;99.90;;;;;;5045958;28;20401;-94
2021/03/04 05:56:36;;;;;;;12.60;7.05;;;6.30;99.90;;;;;;5055889;28;20025;-94
2021/03/04 05:59:02;;;;;;;15.45;7.00;;;6.30;99.90;;;;;;5056448;28;20044;-94
2021/03/04 06:01:29;;;;;;;13.73;7.72;;;6.40;99.90;;;;;;5056756;28;20538;-93
2021/03/04 06:03:55;;;;;;;16.92;7.93;;;6.40;99.90;;;;;;5054782;28;20021;-94
2021/03/04 06:06:20;;;;;;;18.73;7.63;;;6.30;99.90;;;;;;5055650;28;20028;-95
2021/03/04 06:08:46;;;;;;;11.07;7.18;;;6.20;99.90;;;;;;5055771;28;20428;-95
2021/03/04 06:11:12;;;;;;;18.90;8.05;;;6.30;99.90;;;;;;5056859;28;20104;-94
2021/03/04 06:13:38;;;;;;;15.85;8.15;;;6.40;99.90;;;;;;5055313;28;20032;-93
2021/03/04 06:16:04;;;;;;;13.90;8.10;;;6.20;99.90;;;;;;5056858;28;20036;-93
2021/03/04 06:18:40;;;;;;;15.38;7.63;;;6.10;99.90;;;;;;5055518;28;20491;-92
2021/03/04 06:21:25;;;;;;;13.32;8.00;;;5.90;99.90;;;;;;5057471;28;20029;-92
2021/03/04 06:23:52;;;;;;;15.35;8.07;;;5.90;99.90;;;;;;5055236;28;20029;-92
2021/03/04 06:26:38;;;;;;;18.45;8.52;;;6.00;99.90;;;;;;5055135;28;20477;-93
2021/03/04 06:29:18;;;;;;;15.35;7.97;;;6.00;99.90;;;;;;5055053;28;20090;-92
2021/03/04 06:31:46;;;;;;;20.05;8.63;;;6.00;99.90;;;;;;5054909;28;20032;-92
2021/03/04 06:34:18;;;;;;;11.55;7.05;;;5.80;99.90;;;;;;5054874;28;20040;-92
2021/03/04 06:36:58;;;;;;;16.58;8.20;;;5.80;99.90;;;;;;5056267;28;20029;-91
2021/03/04 06:39:26;;;;;;;13.15;7.88;;;5.80;99.90;;;;;;5056380;28;20091;-91
2021/03/04 06:42:04;;;;;;;13.82;8.60;;;5.80;99.90;;;;;;5055610;28;20067;-91
2021/03/04 06:44:39;;;;;;;19.00;9.10;;;5.80;99.90;;;;;;5055789;28;20472;-91
2021/03/04 06:47:07;;;;;;;16.02;8.82;;;5.80;99.90;;;;;;5054419;28;20029;-92
2021/03/04 06:49:40;;;;;;;14.55;8.15;;;5.90;99.90;;;;;;5055868;28;20100;-91
2021/03/04 06:52:07;;;;;;;15.48;8.38;;;6.00;99.90;;;;;;5054864;28;20116;-91
2021/03/04 06:54:33;;;;;;;17.33;7.72;;;6.00;99.90;;;;;;5054595;28;20024;-91
2021/03/04 06:57:12;;;;;;;43.28;13.20;;;6.10;99.90;;;;;;5054208;28;20028;-91
2021/03/04 06:59:45;;;;;;;20.77;10.25;;;6.00;99.90;;;;;;5054389;28;20025;-92
2021/03/04 07:02:23;;;;;;;21.08;9.27;;;6.00;99.90;;;;;;5054343;28;20032;-92
2021/03/04 07:04:56;;;;;;;20.83;8.63;;;6.20;99.90;;;;;;5054346;28;20021;-91
2021/03/04 07:07:24;;;;;;;17.35;8.35;;;6.20;99.90;;;;;;5054764;28;20025;-94
2021/03/04 07:09:52;;;;;;;18.15;8.50;;;6.40;99.90;;;;;;5055100;28;20423;-95
2021/03/04 07:12:19;;;;;;;19.50;9.07;;;6.30;99.90;;;;;;5054618;28;20045;-95
2021/03/04 07:14:48;;;;;;;14.02;7.47;;;6.40;99.90;;;;;;5054352;28;20077;-91
2021/03/04 07:17:16;;;;;;;18.20;8.23;;;6.60;99.90;;;;;;5055101;28;20095;-92
2021/03/04 07:19:50;;;;;;;14.88;8.25;;;6.90;99.90;;;;;;5054614;28;20147;-95
2021/03/04 07:22:19;;;;;;;;;;;7.00;99.90;;;;;;5055397;28;20029;-95
2021/03/04 07:24:46;;;;;;;17.48;7.65;;;7.10;99.90;;;;;;5054938;28;20011;-95
2021/03/04 07:27:19;;;;;;;21.20;7.65;;;6.90;99.90;;;;;;5055321;28;20025;-94
2021/03/04 07:29:54;;;;;;;18.23;7.88;;;6.90;99.90;;;;;;5054959;28;20052;-94
2021/03/04 07:41:02;;;;;;;21.25;9.30;;;7.90;99.90;;;;;;5817606;22;20087;-96
2021/03/04 07:43:29;;;;;;;17.55;8.27;;;8.00;99.90;;;;;;5040076;28;20013;-96
2021/03/04 08:38:02;;;;;;;18.73;7.90;;;10.50;99.90;;;;;;1593097;23;20340;-93
2021/03/04 08:40:37;;;;;;;22.08;7.53;;;10.70;99.90;;;;;;5009910;28;20054;-96
2021/03/04 08:43:14;;;;;;;18.52;7.53;;;10.70;99.90;;;;;;5016872;28;20034;-96
2021/03/04 08:45:40;;;;;;;18.00;8.30;;;10.70;99.90;;;;;;5185529;23;20079;-96
2021/03/04 08:48:08;;;;;;;17.02;7.75;;;10.80;99.90;;;;;;5021751;28;20441;-96
2021/03/04 08:50:39;;;;;;;21.30;8.80;;;11.00;99.90;;;;;;5035740;28;20022;-96
2021/03/04 08:53:20;;;;;;;19.90;8.02;;;11.10;99.90;;;;;;5013080;28;20026;-96
2021/03/04 08:55:51;;;;;;;20.33;8.00;;;11.20;99.80;;;;;;5011743;28;20057;-95
2021/03/04 08:58:25;;;;;;;16.77;8.02;;;11.10;99.40;;;;;;5014849;28;20048;-95
2021/03/04 09:00:54;;;;;;;18.40;7.72;;;11.30;99.60;;;;;;5016960;28;20029;-96
2021/03/04 09:03:21;;;;;;;17.80;7.13;;;11.30;99.30;;;;;;5019204;28;20462;-96
2021/03/04 09:05:47;;;;;;;17.00;7.60;;;11.60;99.00;;;;;;5017054;28;20057;-95
2021/03/04 09:08:15;;;;;;;19.13;8.75;;;11.90;98.70;;;;;;5031369;28;20611;-96
2021/03/04 09:21:20;;;;;;;16.77;7.00;;;12.10;98.20;;;;;;4968525;29;20138;-95
2021/03/04 09:24:10;;;;;;;20.10;7.28;;;12.20;97.20;;;;;;5007530;28;20034;-96
2021/03/04 09:26:37;;;;;;;15.10;6.75;;;12.40;96.90;;;;;;5015440;28;20033;-94
2021/03/04 09:29:06;;;;;;;15.45;7.22;;;12.40;96.80;;;;;;5034914;28;20068;-94
2021/03/04 09:31:38;;;;;;;14.00;6.60;;;12.50;96.40;;;;;;5025581;28;20027;-94
2021/03/04 09:34:22;;;;;;;18.63;7.45;;;12.80;96.60;;;;;;4994188;28;20135;-93
2021/03/04 09:47:01;;;;;;;16.02;7.15;;;13.20;95.40;;;;;;4944339;28;20115;-92
2021/03/04 09:49:39;;;;;;;17.90;6.90;;;13.60;93.90;;;;;;4945461;29;20068;-94
2021/03/04 09:52:16;;;;;;;14.38;6.45;;;13.70;93.40;;;;;;4929285;29;20563;-95
2021/03/04 09:54:42;;;;;;;17.88;7.28;;;14.00;93.90;;;;;;4930010;29;20503;-95
2021/03/04 09:57:15;;;;;;;16.92;6.85;;;14.30;93.10;;;;;;4954141;28;20177;-96
2021/03/04 09:59:51;;;;;;;18.02;7.35;;;14.40;93.00;;;;;;4987603;28;20027;-93
2021/03/04 10:02:45;;;;;;;23.05;7.75;;;14.60;92.60;;;;;;4988137;28;20089;-95
2021/03/04 10:05:27;;;;;;;22.00;7.40;;;14.50;92.50;;;;;;5006005;28;20135;-95
2021/03/04 10:08:02;;;;;;;19.63;7.30;;;14.40;92.20;;;;;;4987884;28;20273;-93
2021/03/04 10:13:41;;;;;;;14.07;6.80;;;14.20;91.40;;;;;;5010843;28;20049;-95
2021/03/04 10:16:23;;;;;;;20.67;7.60;;;14.30;92.30;;;;;;4991450;28;20022;-95
2021/03/04 10:25:21;;;;;;;23.42;8.27;;;14.60;90.90;;;;;;4996543;28;20057;-95
2021/03/04 10:27:58;;;;;;;20.13;8.15;;;14.90;91.10;;;;;;4992859;28;20065;-96
2021/03/04 10:30:37;;;;;;;20.85;7.50;;;15.00;90.50;;;;;;4992614;28;20030;-95
2021/03/04 10:33:04;;;;;;;21.95;7.82;;;15.10;90.60;;;;;;5008485;28;20030;-94
2021/03/04 10:35:31;;;;;;;22.55;8.00;;;15.10;89.30;;;;;;5136729;22;20041;-95
2021/03/04 10:37:57;;;;;;;22.48;7.45;;;15.00;89.40;;;;;;5037249;28;20033;-94
2021/03/04 10:40:23;;;;;;;24.95;7.28;;;14.70;88.60;;;;;;5200391;22;20054;-95
2021/03/04 10:48:00;;;;;;;21.77;7.50;;;14.60;89.20;;;;;;5358720;22;20274;-95
2021/03/04 10:50:27;;;;;;;22.42;7.57;;;14.80;88.10;;;;;;5269433;22;20073;-95
2021/03/04 10:58:04;;;;;;;21.63;7.95;;;14.70;87.00;;;;;;5526818;22;20057;-95
2021/03/04 11:03:05;;;;;;;17.50;6.93;;;14.60;89.80;;;;;;5874873;22;20053;-93
2021/03/04 11:05:31;;;;;;;19.52;7.57;;;14.50;88.50;;;;;;5054036;28;20026;-96
2021/03/04 11:07:57;;;;;;;20.35;7.45;;;14.20;88.10;;;;;;5058319;28;20029;-96
2021/03/04 11:10:23;;;;;;;19.23;7.38;;;14.10;89.10;;;;;;5403811;22;20268;-95
2021/03/04 11:12:50;;;;;;;21.77;7.80;;;14.30;88.20;;;;;;4998945;28;20045;-96
2021/03/04 11:15:16;;;;;;;21.85;7.88;;;14.20;89.00;;;;;;5000525;28;20027;-96
2021/03/04 11:17:42;;;;;;;26.13;7.45;;;14.30;89.30;;;;;;5000863;28;20106;-95
2021/03/04 11:20:09;;;;;;;26.60;7.93;;;14.40;89.40;;;;;;5474766;23;21284;-90
2021/03/04 11:25:17;;;;;;;24.80;8.68;;;14.80;86.60;;;;;;5360556;22;20033;-96
2021/03/04 11:30:39;;;;;;;22.88;7.88;;;15.20;86.20;;;;;;5266134;23;20057;-96
2021/03/04 11:33:06;;;;;;;23.98;7.65;;;16.20;93.80;;;;;;5012410;28;20033;-95
2021/03/04 11:35:33;;;;;;;17.45;8.02;;;16.00;92.70;;;;;;5015868;28;20014;-95
2021/03/04 11:37:59;;;;;;;21.90;8.40;;;15.70;93.20;;;;;;5030255;28;20026;-96
2021/03/04 11:40:25;;;;;;;25.48;8.20;;;15.60;93.60;;;;;;5012225;28;20089;-94
2021/03/04 11:42:51;;;;;;;20.02;7.10;;;15.40;93.40;;;;;;5077861;23;20041;-96
2021/03/04 11:45:17;;;;;;;21.63;7.53;;;15.40;93.20;;;;;;4999252;28;20037;-96
2021/03/04 11:47:45;;;;;;;26.75;7.97;;;15.40;93.80;;;;;;4991004;28;20055;-95
2021/03/04 11:50:11;;;;;;;22.38;8.30;;;15.10;93.50;;;;;;4999610;28;20419;-96
2021/03/04 12:27:04;;;;;;;18.70;7.85;;;17.60;77.90;;;;;;3776810;23;20253;-93
2021/03/04 13:51:55;;;;;;;15.85;4.57;;;13.60;80.50;;;;;;4839469;23;20411;-96
2021/03/04 14:37:53;;;;;;;22.30;4.50;;;12.80;80.10;;;;;;5670836;23;21143;31
2021/03/04 14:53:47;;;;;;;17.73;4.25;;;12.40;83.40;;;;;;4958659;29;20048;-96
2021/03/04 14:59:37;;;;;;;20.20;5.03;;;12.20;89.00;;;;;;5022335;23;20094;-96
2021/03/04 15:04:38;;;;;;;18.58;4.60;;;13.70;84.80;;;;;;5907289;23;20014;-96
2021/03/04 15:07:04;;;;;;;25.48;4.90;;;15.20;79.50;;;;;;4961194;29;20062;-95
2021/03/04 15:09:30;;;;;;;21.17;4.85;;;16.20;75.30;;;;;;4959624;29;20015;-96
2021/03/04 15:11:56;;;;;;;24.98;4.10;;;16.70;72.40;;;;;;4957252;28;20066;-95
2021/03/04 15:16:57;;;;;;;27.30;4.68;;;16.10;72.90;;;;;;5270280;23;20047;-96
2021/03/04 15:19:23;;;;;;;24.67;4.55;;;15.30;75.40;;;;;;5211109;23;20122;-96
2021/03/04 15:21:49;;;;;;;14.70;4.47;;;14.90;76.60;;;;;;4961056;28;20035;-95
2021/03/04 15:24:15;;;;;;;20.33;4.82;;;14.30;79.30;;;;;;5039731;23;20062;-96
2021/03/04 15:29:42;;;;;;;16.48;4.72;;;13.90;80.90;;;;;;5486477;23;20048;31
2021/03/04 15:32:08;;;;;;;21.20;4.70;;;13.70;81.40;;;;;;5024364;23;20038;-96
2021/03/04 15:37:10;;;;;;;14.23;4.95;;;13.30;82.90;;;;;;5298689;23;20067;-96
2021/03/04 15:39:37;;;;;;;27.52;5.20;;;13.10;89.00;;;;;;4953149;29;20058;-96
2021/03/04 15:42:03;;;;;;;24.65;5.70;;;13.00;86.90;;;;;;4949991;29;20047;-95
2021/03/04 15:44:29;;;;;;;18.95;5.57;;;12.90;87.70;;;;;;4949349;29;20028;-91
2021/03/04 15:46:55;;;;;;;20.55;5.80;;;12.60;86.40;;;;;;4938219;29;20020;-88
2021/03/04 15:49:29;;;;;;;22.58;6.13;;;12.40;87.40;;;;;;4941013;29;20039;-96
2021/03/04 15:51:55;;;;;;;17.17;6.53;;;12.50;87.50;;;;;;4946257;29;20028;-95
2021/03/04 15:54:21;;;;;;;18.63;5.57;;;12.60;87.40;;;;;;4949029;29;20032;-95
2021/03/04 15:56:47;;;;;;;26.20;6.45;;;12.70;87.40;;;;;;4951813;29;20099;-93
2021/03/04 15:59:14;;;;;;;13.85;5.65;;;12.80;87.30;;;;;;4952473;29;20054;-94
2021/03/04 16:01:40;;;;;;;15.48;6.20;;;12.80;87.00;;;;;;4966196;29;20019;-96
2021/03/04 16:04:06;;;;;;;35.55;7.68;;;12.80;87.60;;;;;;4950741;29;20050;-96
2021/03/04 16:06:31;;;;;;;24.55;7.97;;;12.90;87.70;;;;;;4949607;29;20031;-95
2021/03/04 16:08:57;;;;;;;20.52;6.88;;;12.80;88.30;;;;;;4949323;29;20027;-94
2021/03/04 16:11:23;;;;;;;21.98;5.90;;;12.70;89.00;;;;;;4950608;29;20034;-96
2021/03/04 16:13:48;;;;;;;24.02;7.10;;;12.60;89.50;;;;;;4948008;29;20040;-95
2021/03/04 16:16:14;;;;;;;24.35;7.18;;;12.60;90.00;;;;;;4949268;29;20091;-96
2021/03/04 16:18:40;;;;;;;21.33;7.55;;;12.40;90.00;;;;;;4947590;29;20035;-95
2021/03/04 16:21:06;;;;;;;21.00;7.45;;;12.20;90.50;;;;;;4962392;29;20038;-96
2021/03/04 16:23:32;;;;;;;26.80;7.10;;;12.10;90.80;;;;;;4946541;29;20467;-96
2021/03/04 16:25:58;;;;;;;25.55;7.10;;;11.90;90.90;;;;;;4946728;29;20106;-94
2021/03/04 16:28:23;;;;;;;20.67;7.03;;;11.80;91.20;;;;;;4943483;29;20023;-94
2021/03/04 16:30:49;;;;;;;23.20;7.05;;;11.60;91.70;;;;;;4941265;29;20493;-96
2021/03/04 16:33:15;;;;;;;24.27;6.30;;;11.50;92.30;;;;;;4946841;29;20042;-96
2021/03/04 16:35:41;;;;;;;20.13;6.43;;;11.30;92.40;;;;;;4948884;29;20054;-94
2021/03/04 16:38:08;;;;;;;25.13;7.47;;;11.20;92.70;;;;;;4948891;29;20063;-95
2021/03/04 16:40:34;;;;;;;20.05;7.05;;;11.20;93.00;;;;;;4944853;29;20106;-94
2021/03/04 16:42:59;;;;;;;25.17;6.93;;;11.20;93.40;;;;;;4959658;29;20028;-96
2021/03/04 16:45:25;;;;;;;17.90;6.97;;;11.10;93.60;;;;;;4940842;29;20019;-96
2021/03/04 16:47:53;;;;;;;17.70;7.47;;;11.00;93.90;;;;;;4944028;29;20121;-96
2021/03/04 16:50:19;;;;;;;18.35;7.13;;;11.00;93.90;;;;;;4946140;29;20031;-95
2021/03/04 16:52:45;;;;;;;30.20;7.88;;;11.00;94.20;;;;;;4947817;29;20119;-96
2021/03/04 16:55:11;;;;;;;23.88;7.13;;;10.90;94.00;;;;;;4945944;29;20062;-95
2021/03/04 16:57:37;;;;;;;23.27;6.93;;;10.90;94.20;;;;;;4964611;29;20031;-93
2021/03/04 17:00:05;;;;;;;22.98;8.95;;;10.80;94.20;;;;;;4964916;29;20034;-96
2021/03/04 17:02:31;;;;;;;17.20;7.75;;;10.80;94.70;;;;;;4966479;29;20023;-93
2021/03/04 17:04:57;;;;;;;23.58;7.63;;;10.80;94.40;;;;;;4949884;29;20046;-95
2021/03/04 17:07:23;;;;;;;27.38;8.15;;;10.80;94.80;;;;;;4949487;29;20031;-95
2021/03/04 17:09:50;;;;;;;23.27;7.82;;;10.70;95.10;;;;;;4947431;29;20031;-96
2021/03/04 17:12:16;;;;;;;19.17;7.30;;;10.70;95.30;;;;;;4961901;29;20103;-95
2021/03/04 17:14:42;;;;;;;27.08;7.57;;;10.70;95.40;;;;;;4944834;29;20440;-95
2021/03/04 17:17:08;;;;;;;25.00;8.70;;;10.60;95.60;;;;;;4961711;29;20031;-95
2021/03/04 17:19:33;;;;;;;22.83;8.60;;;10.60;95.80;;;;;;4962876;29;20386;-91
2021/03/04 17:21:59;;;;;;;28.75;8.52;;;10.60;95.90;;;;;;4942128;29;20127;-91
2021/03/04 17:24:25;;;;;;;23.65;8.38;;;10.50;96.10;;;;;;4942359;29;20024;-91
2021/03/04 17:26:50;;;;;;;17.55;7.28;;;10.50;96.30;;;;;;4959111;29;20031;-90
2021/03/04 17:29:16;;;;;;;24.23;7.47;;;10.50;96.30;;;;;;4941772;29;20446;-91
2021/03/04 17:31:43;;;;;;;26.92;8.73;;;10.40;96.80;;;;;;4959089;28;20087;-91
2021/03/04 17:34:09;;;;;;;23.08;7.90;;;10.40;96.70;;;;;;4941741;29;20033;-91
2021/03/04 17:36:35;;;;;;;21.30;7.93;;;10.30;96.60;;;;;;4941826;29;20102;-91
2021/03/04 17:39:02;;;;;;;28.60;7.78;;;10.30;96.80;;;;;;4959035;29;20027;-91
2021/03/04 17:41:28;;;;;;;28.42;8.23;;;10.40;96.90;;;;;;4959001;29;20015;-92
2021/03/04 17:43:54;;;;;;;18.17;8.25;;;10.30;97.40;;;;;;4959047;29;20074;-91
2021/03/04 17:46:20;;;;;;;33.83;7.95;;;10.30;97.60;;;;;;4958941;29;20100;-91